createdAt,value
2022-09-18T00:01:41.790Z,67.50
2022-09-18T00:04:11.015Z,67.78
2022-09-18T00:06:40.707Z,66.97
2022-09-18T00:09:10.333Z,67.27
2022-09-18T00:11:38.424Z,66.49
2022-09-18T00:14:06.295Z,67.17
2022-09-18T00:16:33.214Z,67.01
2022-09-18T00:18:59.604Z,65.85
2022-09-18T00:21:26.422Z,65.81
2022-09-18T00:23:55.978Z,65.75
2022-09-18T00:26:22.631Z,65.17
2022-09-18T00:28:49.026Z,66.42
2022-09-18T00:31:18.741Z,67.07
2022-09-18T00:33:45.261Z,65.92
2022-09-18T00:36:14.124Z,65.88
2022-09-18T00:38:41.585Z,69.42
2022-09-18T00:41:13.796Z,67.19
2022-09-18T00:43:40.408Z,66.52
2022-09-18T00:46:09.483Z,66.90
2022-09-18T00:48:45.284Z,67.72
2022-09-18T00:51:13.441Z,67.01
2022-09-18T00:53:44.274Z,66.10
2022-09-18T00:56:15.325Z,65.40
2022-09-18T00:58:42.312Z,65.60
2022-09-18T01:01:08.794Z,65.49
2022-09-18T01:03:35.649Z,64.67
2022-09-18T01:06:10.487Z,65.03
2022-09-18T01:08:46.172Z,64.62
2022-09-18T01:11:24.153Z,65.27
2022-09-18T01:14:01.454Z,67.04
2022-09-18T01:16:32.030Z,67.37
2022-09-18T01:19:11.713Z,65.60
2022-09-18T01:21:44.269Z,66.96
2022-09-18T01:24:45.562Z,67.71
2022-09-18T01:27:24.304Z,65.37
2022-09-18T01:30:00.072Z,65.34
2022-09-18T01:32:30.441Z,65.13
2022-09-18T01:35:10.166Z,66.69
2022-09-18T01:37:55.703Z,65.82
2022-09-18T01:40:26.897Z,64.80
2022-09-18T01:42:59.338Z,65.76
2022-09-18T01:45:31.883Z,66.61
2022-09-18T01:48:01.435Z,65.07
2022-09-18T01:50:30.831Z,65.46
2022-09-18T01:53:02.249Z,65.54
2022-09-18T01:55:32.118Z,64.68
2022-09-18T01:58:02.395Z,65.51
2022-09-18T02:00:30.575Z,65.53
2022-09-18T02:03:01.290Z,65.49
2022-09-18T02:05:31.622Z,66.04
2022-09-18T02:08:08.577Z,65.97
2022-09-18T02:10:41.246Z,65.62
2022-09-18T02:13:11.111Z,65.77
2022-09-18T02:15:41.369Z,66.69
2022-09-18T02:18:13.547Z,65.44
2022-09-18T02:20:44.722Z,67.25
2022-09-18T02:23:11.980Z,67.02
2022-09-18T02:25:42.789Z,66.24
2022-09-18T02:28:11.536Z,66.30
2022-09-18T02:30:40.182Z,66.88
2022-09-18T02:33:25.299Z,66.02
2022-09-18T02:36:08.456Z,65.30
2022-09-18T02:38:45.665Z,67.23
2022-09-18T02:41:22.166Z,66.08
2022-09-18T02:43:54.046Z,68.01
2022-09-18T02:46:30.897Z,65.63
2022-09-18T02:49:08.546Z,65.20
2022-09-18T02:51:44.482Z,64.92
2022-09-18T02:54:13.799Z,64.93
2022-09-18T02:56:44.324Z,66.79
2022-09-18T02:59:15.915Z,65.74
2022-09-18T03:01:45.574Z,64.48
2022-09-18T03:04:14.137Z,65.47
2022-09-18T03:06:41.187Z,64.97
2022-09-18T03:09:07.731Z,65.11
2022-09-18T03:11:34.109Z,66.56
2022-09-18T03:14:00.498Z,65.75
2022-09-18T03:16:26.882Z,65.31
2022-09-18T03:18:54.588Z,65.61
2022-09-18T03:21:20.978Z,64.64
2022-09-18T03:23:47.321Z,65.16
2022-09-18T03:26:13.650Z,67.62
2022-09-18T03:28:40.034Z,67.12
2022-09-18T03:31:06.390Z,66.71
2022-09-18T03:33:32.795Z,65.37
2022-09-18T03:36:00.556Z,66.07
2022-09-18T03:38:26.879Z,67.20
2022-09-18T03:40:53.212Z,67.38
2022-09-18T03:43:19.623Z,67.37
2022-09-18T03:45:46.167Z,65.70
2022-09-18T03:48:12.540Z,66.49
2022-09-18T03:50:38.911Z,66.12
2022-09-18T03:53:06.718Z,67.39
2022-09-18T03:55:33.054Z,66.46
2022-09-18T03:57:59.592Z,69.17
2022-09-18T04:00:25.980Z,67.65
2022-09-18T04:02:52.377Z,68.60
2022-09-18T04:05:18.845Z,67.43
2022-09-18T04:07:45.245Z,67.49
2022-09-18T04:10:13.107Z,68.19
2022-09-18T04:12:39.652Z,66.99
2022-09-18T04:15:07.488Z,67.43
2022-09-18T04:17:33.929Z,68.59
2022-09-18T04:20:00.299Z,66.99
2022-09-18T04:22:26.645Z,68.02
2022-09-18T04:24:52.979Z,67.08
2022-09-18T04:27:20.668Z,66.13
2022-09-18T04:29:47.017Z,67.47
2022-09-18T04:32:13.381Z,67.46
2022-09-18T04:34:39.756Z,67.77
2022-09-18T04:37:10.201Z,66.92
2022-09-18T04:39:36.912Z,66.91
2022-09-18T04:42:03.930Z,68.29
2022-09-18T04:44:31.613Z,67.95
2022-09-18T04:46:58.095Z,67.37
2022-09-18T04:49:24.535Z,68.39
2022-09-18T04:51:50.909Z,67.41
2022-09-18T04:54:17.261Z,66.54
2022-09-18T04:56:43.620Z,67.06
2022-09-18T04:59:09.994Z,67.09
2022-09-18T05:01:37.801Z,66.35
2022-09-18T05:04:04.256Z,65.63
2022-09-18T05:06:30.654Z,65.17
2022-09-18T05:08:57.519Z,67.59
2022-09-18T05:11:24.087Z,66.01
2022-09-18T05:13:50.505Z,65.61
2022-09-18T05:16:16.958Z,65.39
2022-09-18T05:18:44.688Z,64.29
2022-09-18T05:21:11.083Z,64.43
2022-09-18T05:23:37.500Z,64.47
2022-09-18T05:26:04.136Z,64.73
2022-09-18T05:28:30.480Z,66.14
2022-09-18T05:30:58.455Z,65.22
2022-09-18T05:33:25.110Z,65.12
2022-09-18T05:35:55.265Z,65.63
2022-09-18T05:38:21.672Z,66.71
2022-09-18T05:40:48.361Z,67.48
2022-09-18T05:43:15.208Z,66.47
2022-09-18T05:45:41.589Z,65.65
2022-09-18T05:48:08.478Z,65.63
2022-09-18T05:50:35.612Z,65.03
2022-09-18T05:53:05.469Z,65.01
2022-09-18T05:55:32.670Z,65.73
2022-09-18T05:58:00.536Z,65.20
2022-09-18T06:00:28.796Z,65.41
2022-09-18T06:02:56.295Z,68.88
2022-09-18T06:05:23.390Z,67.05
2022-09-18T06:07:50.000Z,66.92
2022-09-18T06:10:18.945Z,65.40
2022-09-18T06:12:45.463Z,65.24
2022-09-18T06:15:12.736Z,67.72
2022-09-18T06:17:39.290Z,66.16
2022-09-18T06:20:07.084Z,65.85
2022-09-18T06:22:33.443Z,67.12
2022-09-18T06:24:59.821Z,66.75
2022-09-18T06:27:27.768Z,66.10
2022-09-18T06:29:54.305Z,65.20
2022-09-18T06:32:20.951Z,63.76
2022-09-18T06:34:47.521Z,62.89
2022-09-18T06:37:15.062Z,63.97
2022-09-18T06:39:41.496Z,62.45
2022-09-18T06:42:07.959Z,63.06
2022-09-18T06:44:35.637Z,64.45
2022-09-18T06:47:02.061Z,65.22
2022-09-18T06:49:28.476Z,65.46
2022-09-18T06:51:54.823Z,64.70
2022-09-18T06:54:21.336Z,64.58
2022-09-18T06:56:47.677Z,66.95
2022-09-18T06:59:14.049Z,65.94
2022-09-18T07:01:41.843Z,65.92
2022-09-18T07:04:08.508Z,66.53
2022-09-18T07:06:34.860Z,69.00
2022-09-18T07:09:01.520Z,66.58
2022-09-18T07:11:27.907Z,64.60
2022-09-18T07:13:54.254Z,64.42
2022-09-18T07:16:20.855Z,65.65
2022-09-18T07:18:48.964Z,64.05
2022-09-18T07:21:15.360Z,64.48
2022-09-18T07:23:41.890Z,64.31
2022-09-18T07:26:08.228Z,64.98
2022-09-18T07:28:34.594Z,64.44
2022-09-18T07:31:02.989Z,63.85
2022-09-18T07:33:29.398Z,66.23
2022-09-18T07:36:00.346Z,65.05
2022-09-18T07:38:26.719Z,63.61
2022-09-18T07:40:53.108Z,62.90
2022-09-18T07:43:19.492Z,63.29
2022-09-18T07:45:46.263Z,63.49
2022-09-18T07:48:13.079Z,62.84
2022-09-18T07:50:39.549Z,65.14
2022-09-18T07:53:07.252Z,67.17
2022-09-18T07:55:35.530Z,67.88
2022-09-18T07:58:03.819Z,68.14
2022-09-18T08:00:33.458Z,71.65
2022-09-18T08:03:04.277Z,73.78
2022-09-18T08:05:32.072Z,69.05
2022-09-18T08:08:02.441Z,69.90
2022-09-18T08:10:30.231Z,66.28
2022-09-18T08:12:56.632Z,66.77
2022-09-18T08:15:23.092Z,64.63
2022-09-18T08:17:49.436Z,64.31
2022-09-18T08:20:15.992Z,61.96
2022-09-18T08:22:42.662Z,61.81
2022-09-18T08:25:09.564Z,59.78
2022-09-18T08:27:37.456Z,61.97
2022-09-18T08:30:04.539Z,62.96
2022-09-18T08:32:30.873Z,61.30
2022-09-18T08:34:57.205Z,64.05
2022-09-18T08:37:23.606Z,64.13
2022-09-18T08:39:49.999Z,64.28
2022-09-18T08:42:27.447Z,61.24
2022-09-18T08:45:00.396Z,61.20
2022-09-18T08:47:32.919Z,63.52
2022-09-18T08:50:05.205Z,61.53
2022-09-18T08:52:34.796Z,62.70
2022-09-18T08:55:03.691Z,65.20
2022-09-18T08:57:35.520Z,63.45
2022-09-18T09:00:07.001Z,61.46
2022-09-18T09:02:39.258Z,64.57
2022-09-18T09:05:10.188Z,63.35
2022-09-18T09:08:02.494Z,60.48
2022-09-18T09:10:41.914Z,59.08
2022-09-18T09:13:46.718Z,59.14
2022-09-18T09:16:17.886Z,59.13
2022-09-18T09:18:58.072Z,59.31
2022-09-18T09:21:48.242Z,61.33
2022-09-18T09:24:29.468Z,61.56
2022-09-18T09:26:56.844Z,62.69
2022-09-18T09:29:27.637Z,60.32
2022-09-18T09:31:59.593Z,60.72
2022-09-18T09:34:30.989Z,62.14
2022-09-18T09:37:02.151Z,59.78
2022-09-18T09:39:34.795Z,59.56
2022-09-18T09:42:06.017Z,58.74
2022-09-18T09:44:40.194Z,58.20
2022-09-18T09:47:27.744Z,57.66
2022-09-18T09:50:05.980Z,57.21
2022-09-18T09:52:32.947Z,57.86
2022-09-18T09:55:07.764Z,57.18
2022-09-18T09:57:44.005Z,58.68
2022-09-18T10:00:14.739Z,59.61
2022-09-18T10:02:57.609Z,59.32
2022-09-18T10:05:30.201Z,60.29
2022-09-18T10:08:01.239Z,59.49
2022-09-18T10:10:33.962Z,58.69
2022-09-18T10:13:03.212Z,60.04
2022-09-18T10:15:35.093Z,60.39
2022-09-18T10:18:06.298Z,60.50
2022-09-18T10:20:33.093Z,60.07
2022-09-18T10:23:05.470Z,58.86
2022-09-18T10:25:38.953Z,59.36
2022-09-18T10:28:05.433Z,58.52
2022-09-18T10:30:31.892Z,57.01
2022-09-18T10:32:58.427Z,57.35
2022-09-18T10:35:42.168Z,56.18
2022-09-18T10:38:32.169Z,58.66
2022-09-18T10:41:11.732Z,58.37
2022-09-18T10:43:50.416Z,57.76
2022-09-18T10:46:23.346Z,59.44
2022-09-18T10:48:49.774Z,59.63
2022-09-18T10:51:19.434Z,57.10
2022-09-18T10:53:45.890Z,57.45
2022-09-18T10:56:16.904Z,57.80
2022-09-18T10:58:43.368Z,57.88
2022-09-18T11:01:10.782Z,57.98
2022-09-18T11:03:40.563Z,56.35
2022-09-18T11:06:14.256Z,56.19
2022-09-18T11:08:43.431Z,56.57
2022-09-18T11:11:13.482Z,56.20
2022-09-18T11:13:44.520Z,56.32
2022-09-18T11:16:11.775Z,56.73
2022-09-18T11:18:38.246Z,55.91
2022-09-18T11:21:06.810Z,55.62
2022-09-18T11:23:34.743Z,55.76
2022-09-18T11:26:16.929Z,57.08
2022-09-18T11:28:57.276Z,57.17
2022-09-18T11:31:24.133Z,55.47
2022-09-18T11:33:54.510Z,54.72
2022-09-18T11:36:24.684Z,55.78
2022-09-18T11:38:51.105Z,54.22
2022-09-18T11:41:24.565Z,56.03
2022-09-18T11:44:00.634Z,55.30
2022-09-18T11:46:41.881Z,53.88
2022-09-18T11:49:12.837Z,54.93
2022-09-18T11:51:47.112Z,55.77
2022-09-18T11:54:24.693Z,55.52
2022-09-18T11:56:58.154Z,54.61
2022-09-18T11:59:29.386Z,54.88
2022-09-18T12:01:58.612Z,55.31
2022-09-18T12:04:38.227Z,57.54
2022-09-18T12:07:14.861Z,58.88
2022-09-18T12:09:48.070Z,58.27
2022-09-18T12:12:20.201Z,59.40
2022-09-18T12:14:54.283Z,58.94
2022-09-18T12:17:25.617Z,62.66
2022-09-18T12:19:56.633Z,59.04
2022-09-18T12:22:26.882Z,58.33
2022-09-18T12:24:54.574Z,56.68
2022-09-18T12:27:30.520Z,57.40
2022-09-18T12:30:05.905Z,61.06
2022-09-18T12:33:01.064Z,58.15
2022-09-18T12:35:38.604Z,58.07
2022-09-18T12:38:17.579Z,57.70
2022-09-18T12:41:03.542Z,58.81
2022-09-18T12:43:51.945Z,57.90
2022-09-18T12:46:27.388Z,56.70
2022-09-18T12:49:12.161Z,56.74
2022-09-18T12:51:44.179Z,53.92
2022-09-18T12:54:25.402Z,56.52
2022-09-18T12:57:09.231Z,55.14
2022-09-18T12:59:49.371Z,56.45
2022-09-18T13:02:26.762Z,55.77
2022-09-18T13:05:00.703Z,54.84
2022-09-18T13:07:31.912Z,55.21
2022-09-18T13:10:04.974Z,55.25
2022-09-18T13:12:38.154Z,55.24
2022-09-18T13:15:16.324Z,55.12
2022-09-18T13:17:48.807Z,54.85
2022-09-18T13:20:22.961Z,55.90
2022-09-18T13:22:53.341Z,57.20
2022-09-18T13:25:25.533Z,56.01
2022-09-18T13:27:54.106Z,56.85
2022-09-18T13:30:25.996Z,55.05
2022-09-18T13:32:53.183Z,54.57
2022-09-18T13:35:23.866Z,56.24
2022-09-18T13:38:16.944Z,54.68
2022-09-18T13:40:46.385Z,54.56
2022-09-18T13:43:21.922Z,55.00
2022-09-18T13:45:50.052Z,54.67
2022-09-18T13:48:21.537Z,54.70
2022-09-18T13:50:52.685Z,53.62
2022-09-18T13:53:31.194Z,54.24
2022-09-18T13:55:57.625Z,53.67
2022-09-18T13:58:45.931Z,55.83
2022-09-18T14:01:54.681Z,57.58
2022-09-18T14:05:07.091Z,56.60
2022-09-18T14:07:54.352Z,54.66
2022-09-18T14:10:24.380Z,52.56
2022-09-18T14:13:17.636Z,53.37
2022-09-18T14:15:53.618Z,52.59
2022-09-18T14:18:24.738Z,52.11
2022-09-18T14:20:53.351Z,53.78
2022-09-18T14:24:10.704Z,55.30
2022-09-18T14:26:58.569Z,60.30
2022-09-18T14:29:28.753Z,62.75
2022-09-18T14:31:57.498Z,63.00
2022-09-18T14:34:27.776Z,62.09
2022-09-18T14:36:55.792Z,63.20
2022-09-18T14:39:23.575Z,62.18
2022-09-18T14:41:51.756Z,60.98
2022-09-18T14:44:20.643Z,60.24
2022-09-18T14:46:54.407Z,61.28
2022-09-18T14:49:30.606Z,63.02
2022-09-18T14:52:03.907Z,60.52
2022-09-18T14:54:30.819Z,62.40
2022-09-18T14:57:00.604Z,60.02
2022-09-18T14:59:28.671Z,58.42
2022-09-18T15:02:12.941Z,58.63
2022-09-18T15:04:41.600Z,57.69
2022-09-18T15:07:17.415Z,56.35
2022-09-18T15:09:46.262Z,56.83
2022-09-18T15:12:16.586Z,55.89
2022-09-18T15:14:47.657Z,55.68
2022-09-18T15:17:19.383Z,56.10
2022-09-18T15:19:57.671Z,55.23
2022-09-18T15:22:24.726Z,55.00
2022-09-18T15:24:51.371Z,56.60
2022-09-18T15:27:18.553Z,57.96
2022-09-18T15:29:48.672Z,57.50
2022-09-18T15:32:22.283Z,57.91
2022-09-18T15:34:50.415Z,56.66
2022-09-18T15:37:19.593Z,58.26
2022-09-18T15:39:48.257Z,58.78
2022-09-18T15:42:25.237Z,57.98
2022-09-18T15:45:17.011Z,61.67
2022-09-18T15:47:43.429Z,59.23
2022-09-18T15:50:39.364Z,60.36
2022-09-18T15:53:25.663Z,60.10
2022-09-18T15:55:58.114Z,64.51
2022-09-18T15:58:32.751Z,64.94
2022-09-18T16:01:02.497Z,64.52
2022-09-18T16:03:29.790Z,65.67
2022-09-18T16:05:59.395Z,65.11
2022-09-18T16:08:27.618Z,64.04
2022-09-18T16:10:54.507Z,64.07
2022-09-18T16:13:30.977Z,64.03
2022-09-18T16:16:22.295Z,66.17
2022-09-18T16:18:51.732Z,65.58
2022-09-18T16:21:19.119Z,66.39
2022-09-18T16:23:48.537Z,68.29
2022-09-18T16:26:21.966Z,66.61
2022-09-18T16:28:50.098Z,66.17
2022-09-18T16:31:20.108Z,65.41
2022-09-18T16:33:49.963Z,68.03
2022-09-18T16:36:23.956Z,68.02
2022-09-18T16:38:50.317Z,69.30
2022-09-18T16:41:16.650Z,69.77
2022-09-18T16:43:42.995Z,66.48
2022-09-18T16:46:09.691Z,66.60
2022-09-18T16:48:37.468Z,66.97
2022-09-18T16:51:04.059Z,65.30
2022-09-18T16:53:30.439Z,66.00
2022-09-18T16:55:57.509Z,65.58
2022-09-18T16:58:26.099Z,66.04
2022-09-18T17:00:52.727Z,65.13
2022-09-18T17:03:19.431Z,66.01
2022-09-18T17:05:47.160Z,64.72
2022-09-18T17:08:14.024Z,65.00
2022-09-18T17:10:44.897Z,64.79
2022-09-18T17:13:11.721Z,69.60
2022-09-18T17:15:38.142Z,68.13
2022-09-18T17:18:04.614Z,67.70
2022-09-18T17:20:32.246Z,67.31
2022-09-18T17:22:59.972Z,70.07
2022-09-18T17:25:26.494Z,67.66
2022-09-18T17:27:52.830Z,66.75
2022-09-18T17:30:20.338Z,69.95
2022-09-18T17:32:47.180Z,69.21
2022-09-18T17:35:13.647Z,68.07
2022-09-18T17:37:40.227Z,67.90
2022-09-18T17:40:08.760Z,68.21
2022-09-18T17:42:36.417Z,67.53
2022-09-18T17:45:03.661Z,68.16
2022-09-18T17:47:30.052Z,67.56
2022-09-18T17:49:56.428Z,68.04
2022-09-18T17:52:22.978Z,67.79
2022-09-18T17:54:49.346Z,67.85
2022-09-18T17:57:17.008Z,67.96
2022-09-18T17:59:44.316Z,68.90
2022-09-18T18:02:13.005Z,69.05
2022-09-18T18:04:39.447Z,68.46
2022-09-18T18:07:06.566Z,69.73
2022-09-18T18:09:35.419Z,70.03
2022-09-18T18:12:02.372Z,69.19
2022-09-18T18:14:30.120Z,68.92
2022-09-18T18:16:56.573Z,68.47
2022-09-18T18:19:23.131Z,69.69
2022-09-18T18:21:49.536Z,70.49
2022-09-18T18:24:17.115Z,68.43
2022-09-18T18:26:45.354Z,68.83
2022-09-18T18:29:15.410Z,68.51
2022-09-18T18:31:44.117Z,69.36
2022-09-18T18:34:11.762Z,69.91
2022-09-18T18:36:39.755Z,70.53
2022-09-18T18:39:06.474Z,70.42
2022-09-18T18:41:32.801Z,69.89
2022-09-18T18:44:01.644Z,69.19
2022-09-18T18:46:29.685Z,69.79
2022-09-18T18:48:58.567Z,69.47
2022-09-18T18:51:25.042Z,70.16
2022-09-18T18:53:54.516Z,70.09
2022-09-18T18:56:20.887Z,69.94
2022-09-18T18:58:47.503Z,70.50
2022-09-18T19:01:15.365Z,70.65
2022-09-18T19:03:42.543Z,70.78
2022-09-18T19:06:10.489Z,70.67
2022-09-18T19:08:37.253Z,70.04
2022-09-18T19:11:05.188Z,70.75
2022-09-18T19:13:31.623Z,70.94
2022-09-18T19:16:02.304Z,71.16
2022-09-18T19:18:28.726Z,70.83
2022-09-18T19:20:57.636Z,72.18
2022-09-18T19:23:25.346Z,72.42
2022-09-18T19:25:55.974Z,70.63
2022-09-18T19:28:22.501Z,71.77
2022-09-18T19:30:48.854Z,72.04
2022-09-18T19:33:16.405Z,74.01
2022-09-18T19:35:43.016Z,74.47
2022-09-18T19:38:09.388Z,72.67
2022-09-18T19:40:38.842Z,75.05
2022-09-18T19:43:08.603Z,75.10
2022-09-18T19:45:36.876Z,73.81
2022-09-18T19:48:06.873Z,73.31
2022-09-18T19:50:36.654Z,72.34
2022-09-18T19:53:03.290Z,71.13
2022-09-18T19:55:29.699Z,72.69
2022-09-18T19:57:59.022Z,73.49
2022-09-18T20:00:25.892Z,71.12
2022-09-18T20:02:56.372Z,74.55
2022-09-18T20:05:22.901Z,74.16
2022-09-18T20:07:49.525Z,72.18
2022-09-18T20:10:16.042Z,73.00
2022-09-18T20:12:42.498Z,74.52
2022-09-18T20:15:11.864Z,73.69
2022-09-18T20:17:38.653Z,73.22
2022-09-18T20:20:08.629Z,76.88
2022-09-18T20:22:35.366Z,77.25
2022-09-18T20:25:01.694Z,73.98
2022-09-18T20:27:28.099Z,73.77
2022-09-18T20:29:54.452Z,76.66
2022-09-18T20:32:22.099Z,73.50
2022-09-18T20:34:48.517Z,76.30
2022-09-18T20:37:14.913Z,75.03
2022-09-18T20:39:41.263Z,73.28
2022-09-18T20:42:07.655Z,73.95
2022-09-18T20:44:34.002Z,72.11
2022-09-18T20:47:00.970Z,71.64
2022-09-18T20:49:28.775Z,72.29
2022-09-18T20:51:55.122Z,74.53
2022-09-18T20:54:21.452Z,73.90
2022-09-18T20:56:47.804Z,73.98
2022-09-18T20:59:16.302Z,73.38
2022-09-18T21:01:43.522Z,75.42
2022-09-18T21:04:12.935Z,74.05
2022-09-18T21:06:40.623Z,75.86
2022-09-18T21:09:08.611Z,77.27
2022-09-18T21:11:37.351Z,77.30
2022-09-18T21:14:05.550Z,78.24
2022-09-18T21:16:50.148Z,75.95
2022-09-18T21:19:18.412Z,77.30
2022-09-18T21:21:46.975Z,75.71
2022-09-18T21:24:13.427Z,74.87
2022-09-18T21:26:41.768Z,73.62
2022-09-18T21:29:11.927Z,78.07
2022-09-18T21:31:39.429Z,77.35
2022-09-18T21:34:05.835Z,77.54
2022-09-18T21:36:32.260Z,75.93
2022-09-18T21:39:00.376Z,74.50
2022-09-18T21:41:26.758Z,73.92
2022-09-18T21:43:53.747Z,78.80
2022-09-18T21:46:22.299Z,76.77
2022-09-18T21:48:49.996Z,75.19
2022-09-18T21:51:17.081Z,77.57
2022-09-18T21:53:44.538Z,78.44
2022-09-18T21:56:13.825Z,77.34
2022-09-18T21:58:40.840Z,78.04
2022-09-18T22:01:08.968Z,76.46
2022-09-18T22:03:35.376Z,78.35
2022-09-18T22:06:01.719Z,76.18
2022-09-18T22:08:30.045Z,77.43
2022-09-18T22:11:00.362Z,77.44
2022-09-18T22:13:30.553Z,77.26
2022-09-18T22:15:56.953Z,79.19
2022-09-18T22:18:23.526Z,76.79
2022-09-18T22:20:49.898Z,76.30
2022-09-18T22:23:16.297Z,78.19
2022-09-18T22:25:42.635Z,78.92
2022-09-18T22:28:09.148Z,77.99
2022-09-18T22:30:37.431Z,77.28
2022-09-18T22:33:04.478Z,76.09
2022-09-18T22:35:30.847Z,76.10
2022-09-18T22:37:57.244Z,74.97
2022-09-18T22:40:23.635Z,76.38
2022-09-18T22:42:50.040Z,77.07
2022-09-18T22:45:16.527Z,76.04
2022-09-18T22:47:44.309Z,75.83
2022-09-18T22:50:10.715Z,77.20
2022-09-18T22:52:37.073Z,77.47
2022-09-18T22:55:04.108Z,77.95
2022-09-18T22:57:31.091Z,75.60
2022-09-18T22:59:57.445Z,77.33
2022-09-18T23:02:23.845Z,77.42
2022-09-18T23:04:51.589Z,79.12
2022-09-18T23:07:17.954Z,77.03
2022-09-18T23:09:44.285Z,76.17
2022-09-18T23:12:10.999Z,78.35
2022-09-18T23:14:37.355Z,78.13
2022-09-18T23:17:03.706Z,78.78
2022-09-18T23:19:32.496Z,78.90
2022-09-18T23:22:00.446Z,77.21
2022-09-18T23:24:27.590Z,77.54
2022-09-18T23:26:56.804Z,77.03
2022-09-18T23:29:24.254Z,77.23
2022-09-18T23:31:52.504Z,76.13
2022-09-18T23:34:20.743Z,79.06
2022-09-18T23:36:49.756Z,79.39
2022-09-18T23:39:20.236Z,79.03
2022-09-18T23:41:46.913Z,76.45
2022-09-18T23:44:16.223Z,77.13
2022-09-18T23:46:43.737Z,78.19
2022-09-18T23:49:11.551Z,77.35
2022-09-18T23:51:41.814Z,77.20
2022-09-18T23:54:14.499Z,77.58
2022-09-18T23:56:42.683Z,77.59
2022-09-18T23:59:10.883Z,77.51
